sensor_id;sensor_type;location;lat;lon;timestamp;P1;durP1;ratioP1;P2;durP2;ratioP2
78622;SDS011;67943;54.412;9.502;2024-01-07T00:04:50;7.13;;;2.90;;
78622;SDS011;67943;54.412;9.502;2024-01-07T00:09:51;6.88;;;2.33;;
78622;SDS011;67943;54.412;9.502;2024-01-07T00:14:53;7.25;;;2.90;;
78622;SDS011;67943;54.412;9.502;2024-01-07T00:19:55;7.55;;;2.70;;
78622;SDS011;67943;54.412;9.502;2024-01-07T00:24:57;7.30;;;2.97;;
78622;SDS011;67943;54.412;9.502;2024-01-07T00:29:58;5.00;;;2.00;;
78622;SDS011;67943;54.412;9.502;2024-01-07T00:35:01;5.72;;;2.63;;
78622;SDS011;67943;54.412;9.502;2024-01-07T00:40:04;6.53;;;2.90;;
78622;SDS011;67943;54.412;9.502;2024-01-07T00:45:06;9.07;;;3.17;;
78622;SDS011;67943;54.412;9.502;2024-01-07T00:50:11;6.85;;;2.50;;
78622;SDS011;67943;54.412;9.502;2024-01-07T00:55:12;6.05;;;2.38;;
78622;SDS011;67943;54.412;9.502;2024-01-07T01:00:14;6.82;;;2.42;;
78622;SDS011;67943;54.412;9.502;2024-01-07T01:05:17;6.70;;;2.97;;
78622;SDS011;67943;54.412;9.502;2024-01-07T01:10:19;11.27;;;2.65;;
78622;SDS011;67943;54.412;9.502;2024-01-07T01:15:21;7.30;;;2.05;;
78622;SDS011;67943;54.412;9.502;2024-01-07T01:20:24;5.88;;;2.00;;
78622;SDS011;67943;54.412;9.502;2024-01-07T01:25:25;5.38;;;1.58;;
78622;SDS011;67943;54.412;9.502;2024-01-07T01:30:27;4.05;;;2.10;;
78622;SDS011;67943;54.412;9.502;2024-01-07T01:35:33;3.17;;;1.60;;
78622;SDS011;67943;54.412;9.502;2024-01-07T01:40:34;3.63;;;1.90;;
78622;SDS011;67943;54.412;9.502;2024-01-07T01:45:36;3.72;;;1.70;;
78622;SDS011;67943;54.412;9.502;2024-01-07T01:50:39;6.75;;;2.03;;
78622;SDS011;67943;54.412;9.502;2024-01-07T01:55:41;7.35;;;2.05;;
78622;SDS011;67943;54.412;9.502;2024-01-07T02:00:43;4.55;;;1.90;;
78622;SDS011;67943;54.412;9.502;2024-01-07T02:05:46;4.18;;;1.98;;
78622;SDS011;67943;54.412;9.502;2024-01-07T02:10:49;4.65;;;2.15;;
78622;SDS011;67943;54.412;9.502;2024-01-07T02:15:50;3.78;;;1.80;;
78622;SDS011;67943;54.412;9.502;2024-01-07T02:20:53;4.10;;;1.38;;
78622;SDS011;67943;54.412;9.502;2024-01-07T02:25:56;5.13;;;1.67;;
78622;SDS011;67943;54.412;9.502;2024-01-07T02:30:57;3.00;;;1.60;;
78622;SDS011;67943;54.412;9.502;2024-01-07T02:35:59;5.15;;;1.70;;
78622;SDS011;67943;54.412;9.502;2024-01-07T02:41:02;5.70;;;2.10;;
78622;SDS011;67943;54.412;9.502;2024-01-07T02:46:04;5.93;;;1.80;;
78622;SDS011;67943;54.412;9.502;2024-01-07T02:51:06;4.78;;;2.25;;
78622;SDS011;67943;54.412;9.502;2024-01-07T02:56:09;7.00;;;2.22;;
78622;SDS011;67943;54.412;9.502;2024-01-07T03:01:10;4.80;;;1.83;;
78622;SDS011;67943;54.412;9.502;2024-01-07T03:06:13;5.43;;;2.42;;
78622;SDS011;67943;54.412;9.502;2024-01-07T03:11:15;8.98;;;2.53;;
78622;SDS011;67943;54.412;9.502;2024-01-07T03:16:20;5.50;;;2.17;;
78622;SDS011;67943;54.412;9.502;2024-01-07T03:21:22;4.68;;;2.22;;
78622;SDS011;67943;54.412;9.502;2024-01-07T03:26:28;4.90;;;2.22;;
78622;SDS011;67943;54.412;9.502;2024-01-07T03:31:32;3.33;;;1.80;;
78622;SDS011;67943;54.412;9.502;2024-01-07T03:36:34;6.03;;;2.28;;
78622;SDS011;67943;54.412;9.502;2024-01-07T03:41:36;5.18;;;2.50;;
78622;SDS011;67943;54.412;9.502;2024-01-07T03:46:38;7.72;;;2.35;;
78622;SDS011;67943;54.412;9.502;2024-01-07T03:51:39;6.25;;;2.58;;
78622;SDS011;67943;54.412;9.502;2024-01-07T03:56:42;6.35;;;2.50;;
78622;SDS011;67943;54.412;9.502;2024-01-07T04:01:43;10.70;;;3.15;;
78622;SDS011;67943;54.412;9.502;2024-01-07T04:06:45;5.95;;;2.90;;
78622;SDS011;67943;54.412;9.502;2024-01-07T04:11:48;7.13;;;2.88;;
78622;SDS011;67943;54.412;9.502;2024-01-07T04:16:49;9.73;;;3.45;;
78622;SDS011;67943;54.412;9.502;2024-01-07T04:21:51;6.75;;;3.22;;
78622;SDS011;67943;54.412;9.502;2024-01-07T04:26:53;7.47;;;3.30;;
78622;SDS011;67943;54.412;9.502;2024-01-07T04:31:55;5.95;;;2.88;;
78622;SDS011;67943;54.412;9.502;2024-01-07T04:36:57;6.80;;;3.30;;
78622;SDS011;67943;54.412;9.502;2024-01-07T04:41:59;8.40;;;3.03;;
78622;SDS011;67943;54.412;9.502;2024-01-07T04:47:01;8.23;;;3.08;;
78622;SDS011;67943;54.412;9.502;2024-01-07T04:52:03;7.22;;;2.85;;
78622;SDS011;67943;54.412;9.502;2024-01-07T04:57:06;9.20;;;3.53;;
78622;SDS011;67943;54.412;9.502;2024-01-07T05:02:07;10.10;;;3.53;;
78622;SDS011;67943;54.412;9.502;2024-01-07T05:07:09;7.68;;;3.13;;
78622;SDS011;67943;54.412;9.502;2024-01-07T05:12:12;7.15;;;2.88;;
78622;SDS011;67943;54.412;9.502;2024-01-07T05:17:13;5.10;;;2.85;;
78622;SDS011;67943;54.412;9.502;2024-01-07T05:22:15;5.53;;;2.53;;
78622;SDS011;67943;54.412;9.502;2024-01-07T05:27:18;5.72;;;3.00;;
78622;SDS011;67943;54.412;9.502;2024-01-07T05:32:19;4.93;;;2.38;;
78622;SDS011;67943;54.412;9.502;2024-01-07T05:37:21;5.40;;;2.40;;
78622;SDS011;67943;54.412;9.502;2024-01-07T05:42:23;7.63;;;2.65;;
78622;SDS011;67943;54.412;9.502;2024-01-07T05:47:25;7.00;;;3.00;;
78622;SDS011;67943;54.412;9.502;2024-01-07T05:52:26;6.20;;;2.97;;
78622;SDS011;67943;54.412;9.502;2024-01-07T05:57:29;8.50;;;3.08;;
78622;SDS011;67943;54.412;9.502;2024-01-07T06:02:31;6.47;;;3.25;;
78622;SDS011;67943;54.412;9.502;2024-01-07T06:07:32;6.53;;;3.10;;
78622;SDS011;67943;54.412;9.502;2024-01-07T06:12:35;7.35;;;3.00;;
78622;SDS011;67943;54.412;9.502;2024-01-07T06:17:37;9.70;;;3.72;;
78622;SDS011;67943;54.412;9.502;2024-01-07T06:22:38;5.72;;;2.63;;
78622;SDS011;67943;54.412;9.502;2024-01-07T06:27:41;7.60;;;3.20;;
78622;SDS011;67943;54.412;9.502;2024-01-07T06:32:43;5.13;;;2.83;;
78622;SDS011;67943;54.412;9.502;2024-01-07T06:37:44;7.57;;;2.95;;
78622;SDS011;67943;54.412;9.502;2024-01-07T06:42:47;8.07;;;3.85;;
78622;SDS011;67943;54.412;9.502;2024-01-07T06:47:49;7.72;;;3.65;;
78622;SDS011;67943;54.412;9.502;2024-01-07T06:52:51;6.50;;;3.25;;
78622;SDS011;67943;54.412;9.502;2024-01-07T06:57:54;6.55;;;2.90;;
78622;SDS011;67943;54.412;9.502;2024-01-07T07:02:55;7.28;;;2.97;;
78622;SDS011;67943;54.412;9.502;2024-01-07T07:07:57;8.60;;;3.45;;
78622;SDS011;67943;54.412;9.502;2024-01-07T07:13:00;7.43;;;2.90;;
78622;SDS011;67943;54.412;9.502;2024-01-07T07:18:01;6.03;;;2.97;;
78622;SDS011;67943;54.412;9.502;2024-01-07T07:23:03;8.05;;;3.05;;
78622;SDS011;67943;54.412;9.502;2024-01-07T07:28:06;7.18;;;3.17;;
78622;SDS011;67943;54.412;9.502;2024-01-07T07:33:08;9.35;;;3.00;;
78622;SDS011;67943;54.412;9.502;2024-01-07T07:38:09;9.05;;;3.28;;
78622;SDS011;67943;54.412;9.502;2024-01-07T07:43:12;8.70;;;3.70;;
78622;SDS011;67943;54.412;9.502;2024-01-07T07:48:14;13.60;;;3.60;;
78622;SDS011;67943;54.412;9.502;2024-01-07T07:53:17;7.30;;;3.20;;
78622;SDS011;67943;54.412;9.502;2024-01-07T07:58:19;6.05;;;2.25;;
78622;SDS011;67943;54.412;9.502;2024-01-07T08:03:21;5.05;;;2.53;;
78622;SDS011;67943;54.412;9.502;2024-01-07T08:08:23;8.70;;;3.25;;
78622;SDS011;67943;54.412;9.502;2024-01-07T08:13:25;8.80;;;3.55;;
78622;SDS011;67943;54.412;9.502;2024-01-07T08:18:27;5.95;;;2.70;;
78622;SDS011;67943;54.412;9.502;2024-01-07T08:23:28;7.00;;;3.10;;
78622;SDS011;67943;54.412;9.502;2024-01-07T08:28:31;4.97;;;2.35;;
78622;SDS011;67943;54.412;9.502;2024-01-07T08:33:33;6.63;;;2.15;;
78622;SDS011;67943;54.412;9.502;2024-01-07T08:38:34;7.53;;;3.10;;
78622;SDS011;67943;54.412;9.502;2024-01-07T08:43:37;4.95;;;2.65;;
78622;SDS011;67943;54.412;9.502;2024-01-07T08:48:39;6.22;;;3.08;;
78622;SDS011;67943;54.412;9.502;2024-01-07T08:53:41;5.93;;;2.78;;
78622;SDS011;67943;54.412;9.502;2024-01-07T08:58:43;6.47;;;2.60;;
78622;SDS011;67943;54.412;9.502;2024-01-07T09:03:45;5.78;;;2.67;;
78622;SDS011;67943;54.412;9.502;2024-01-07T09:08:47;5.50;;;2.67;;
78622;SDS011;67943;54.412;9.502;2024-01-07T09:13:49;6.40;;;2.97;;
78622;SDS011;67943;54.412;9.502;2024-01-07T09:18:51;5.35;;;2.70;;
78622;SDS011;67943;54.412;9.502;2024-01-07T09:23:53;6.97;;;2.50;;
78622;SDS011;67943;54.412;9.502;2024-01-07T09:28:56;8.35;;;3.10;;
78622;SDS011;67943;54.412;9.502;2024-01-07T09:33:57;5.28;;;2.22;;
78622;SDS011;67943;54.412;9.502;2024-01-07T09:38:59;5.40;;;2.47;;
78622;SDS011;67943;54.412;9.502;2024-01-07T09:44:02;3.30;;;2.20;;
78622;SDS011;67943;54.412;9.502;2024-01-07T09:49:04;4.80;;;2.13;;
78622;SDS011;67943;54.412;9.502;2024-01-07T09:54:06;4.40;;;2.35;;
78622;SDS011;67943;54.412;9.502;2024-01-07T09:59:12;7.38;;;2.28;;
78622;SDS011;67943;54.412;9.502;2024-01-07T10:04:16;5.53;;;2.08;;
78622;SDS011;67943;54.412;9.502;2024-01-07T10:09:18;3.47;;;1.80;;
78622;SDS011;67943;54.412;9.502;2024-01-07T10:14:21;4.53;;;1.90;;
78622;SDS011;67943;54.412;9.502;2024-01-07T10:19:25;4.47;;;2.05;;
78622;SDS011;67943;54.412;9.502;2024-01-07T10:24:26;4.40;;;2.10;;
78622;SDS011;67943;54.412;9.502;2024-01-07T10:29:38;4.93;;;2.10;;
78622;SDS011;67943;54.412;9.502;2024-01-07T10:34:40;6.07;;;2.08;;
78622;SDS011;67943;54.412;9.502;2024-01-07T10:39:48;3.33;;;1.92;;
78622;SDS011;67943;54.412;9.502;2024-01-07T10:44:51;3.92;;;2.05;;
78622;SDS011;67943;54.412;9.502;2024-01-07T10:49:52;4.18;;;1.90;;
78622;SDS011;67943;54.412;9.502;2024-01-07T10:54:57;4.20;;;1.70;;
78622;SDS011;67943;54.412;9.502;2024-01-07T11:00:11;3.38;;;1.90;;
78622;SDS011;67943;54.412;9.502;2024-01-07T11:05:20;4.10;;;2.10;;
78622;SDS011;67943;54.412;9.502;2024-01-07T11:10:30;7.07;;;2.92;;
78622;SDS011;67943;54.412;9.502;2024-01-07T11:15:52;5.95;;;3.10;;
78622;SDS011;67943;54.412;9.502;2024-01-07T11:20:57;7.25;;;3.10;;
78622;SDS011;67943;54.412;9.502;2024-01-07T11:26:00;5.97;;;3.47;;
78622;SDS011;67943;54.412;9.502;2024-01-07T11:31:03;5.22;;;2.80;;
78622;SDS011;67943;54.412;9.502;2024-01-07T11:36:05;4.40;;;2.47;;
78622;SDS011;67943;54.412;9.502;2024-01-07T11:41:07;4.47;;;2.28;;
78622;SDS011;67943;54.412;9.502;2024-01-07T11:46:13;3.92;;;2.40;;
78622;SDS011;67943;54.412;9.502;2024-01-07T11:51:14;6.55;;;3.03;;
78622;SDS011;67943;54.412;9.502;2024-01-07T11:56:17;4.78;;;1.92;;
78622;SDS011;67943;54.412;9.502;2024-01-07T12:01:20;3.40;;;1.60;;
78622;SDS011;67943;54.412;9.502;2024-01-07T12:06:22;2.80;;;1.40;;
78622;SDS011;67943;54.412;9.502;2024-01-07T12:11:25;3.13;;;1.80;;
78622;SDS011;67943;54.412;9.502;2024-01-07T12:16:27;4.82;;;1.75;;
78622;SDS011;67943;54.412;9.502;2024-01-07T12:21:29;3.92;;;1.30;;
78622;SDS011;67943;54.412;9.502;2024-01-07T12:26:30;2.38;;;1.63;;
78622;SDS011;67943;54.412;9.502;2024-01-07T12:31:34;3.28;;;1.88;;
78622;SDS011;67943;54.412;9.502;2024-01-07T12:36:36;3.08;;;1.67;;
78622;SDS011;67943;54.412;9.502;2024-01-07T12:41:37;4.43;;;1.88;;
78622;SDS011;67943;54.412;9.502;2024-01-07T12:46:40;4.53;;;1.95;;
78622;SDS011;67943;54.412;9.502;2024-01-07T12:51:42;2.53;;;1.40;;
78622;SDS011;67943;54.412;9.502;2024-01-07T12:56:43;3.13;;;2.00;;
78622;SDS011;67943;54.412;9.502;2024-01-07T13:01:46;4.43;;;2.35;;
78622;SDS011;67943;54.412;9.502;2024-01-07T13:06:48;4.03;;;1.80;;
78622;SDS011;67943;54.412;9.502;2024-01-07T13:11:49;3.08;;;1.58;;
78622;SDS011;67943;54.412;9.502;2024-01-07T13:16:52;5.28;;;2.75;;
78622;SDS011;67943;54.412;9.502;2024-01-07T13:21:54;4.35;;;2.38;;
78622;SDS011;67943;54.412;9.502;2024-01-07T13:26:58;3.17;;;1.58;;
78622;SDS011;67943;54.412;9.502;2024-01-07T13:32:01;4.38;;;1.80;;
78622;SDS011;67943;54.412;9.502;2024-01-07T13:37:02;2.70;;;1.27;;
78622;SDS011;67943;54.412;9.502;2024-01-07T13:42:04;3.78;;;1.25;;
78622;SDS011;67943;54.412;9.502;2024-01-07T13:47:07;2.30;;;1.50;;
78622;SDS011;67943;54.412;9.502;2024-01-07T13:52:11;2.22;;;1.35;;
78622;SDS011;67943;54.412;9.502;2024-01-07T14:02:15;3.40;;;1.63;;
78622;SDS011;67943;54.412;9.502;2024-01-07T14:07:20;5.07;;;2.35;;
78622;SDS011;67943;54.412;9.502;2024-01-07T14:12:22;9.52;;;3.88;;
78622;SDS011;67943;54.412;9.502;2024-01-07T14:17:25;8.45;;;2.90;;
78622;SDS011;67943;54.412;9.502;2024-01-07T14:22:27;7.43;;;2.92;;
78622;SDS011;67943;54.412;9.502;2024-01-07T14:27:29;4.20;;;2.30;;
78622;SDS011;67943;54.412;9.502;2024-01-07T14:32:32;4.60;;;2.80;;
78622;SDS011;67943;54.412;9.502;2024-01-07T14:37:35;5.13;;;3.00;;
78622;SDS011;67943;54.412;9.502;2024-01-07T14:42:37;5.32;;;2.55;;
78622;SDS011;67943;54.412;9.502;2024-01-07T14:47:39;5.07;;;2.30;;
78622;SDS011;67943;54.412;9.502;2024-01-07T14:52:41;3.47;;;1.85;;
78622;SDS011;67943;54.412;9.502;2024-01-07T14:57:43;3.47;;;1.88;;
78622;SDS011;67943;54.412;9.502;2024-01-07T15:02:45;5.10;;;2.40;;
78622;SDS011;67943;54.412;9.502;2024-01-07T15:07:47;4.20;;;2.17;;
78622;SDS011;67943;54.412;9.502;2024-01-07T15:12:49;3.85;;;2.10;;
78622;SDS011;67943;54.412;9.502;2024-01-07T15:17:51;5.25;;;2.80;;
78622;SDS011;67943;54.412;9.502;2024-01-07T15:22:53;7.03;;;2.78;;
78622;SDS011;67943;54.412;9.502;2024-01-07T15:27:54;6.95;;;2.83;;
78622;SDS011;67943;54.412;9.502;2024-01-07T15:32:57;5.03;;;2.50;;
78622;SDS011;67943;54.412;9.502;2024-01-07T15:37:59;6.82;;;3.40;;
78622;SDS011;67943;54.412;9.502;2024-01-07T15:43:00;6.65;;;2.88;;
78622;SDS011;67943;54.412;9.502;2024-01-07T15:48:03;6.20;;;2.63;;
78622;SDS011;67943;54.412;9.502;2024-01-07T15:53:05;5.30;;;2.70;;
78622;SDS011;67943;54.412;9.502;2024-01-07T15:58:07;6.55;;;3.40;;
78622;SDS011;67943;54.412;9.502;2024-01-07T16:03:10;6.07;;;2.97;;
78622;SDS011;67943;54.412;9.502;2024-01-07T16:08:12;5.95;;;3.50;;
78622;SDS011;67943;54.412;9.502;2024-01-07T16:13:13;5.28;;;3.10;;
78622;SDS011;67943;54.412;9.502;2024-01-07T16:18:16;8.43;;;3.55;;
78622;SDS011;67943;54.412;9.502;2024-01-07T16:23:18;6.57;;;3.25;;
78622;SDS011;67943;54.412;9.502;2024-01-07T16:28:19;6.80;;;3.95;;
78622;SDS011;67943;54.412;9.502;2024-01-07T16:33:22;9.57;;;3.10;;
78622;SDS011;67943;54.412;9.502;2024-01-07T16:38:24;7.63;;;3.85;;
78622;SDS011;67943;54.412;9.502;2024-01-07T16:43:25;11.35;;;3.47;;
78622;SDS011;67943;54.412;9.502;2024-01-07T16:48:31;7.75;;;3.30;;
78622;SDS011;67943;54.412;9.502;2024-01-07T16:53:33;8.68;;;4.10;;
78622;SDS011;67943;54.412;9.502;2024-01-07T16:58:35;10.40;;;4.45;;
78622;SDS011;67943;54.412;9.502;2024-01-07T17:03:38;8.68;;;3.55;;
78622;SDS011;67943;54.412;9.502;2024-01-07T17:08:39;8.05;;;3.78;;
78622;SDS011;67943;54.412;9.502;2024-01-07T17:13:41;6.30;;;2.80;;
78622;SDS011;67943;54.412;9.502;2024-01-07T17:18:44;6.53;;;3.35;;
78622;SDS011;67943;54.412;9.502;2024-01-07T17:23:45;8.07;;;3.20;;
78622;SDS011;67943;54.412;9.502;2024-01-07T17:28:51;10.63;;;3.60;;
78622;SDS011;67943;54.412;9.502;2024-01-07T17:33:54;8.93;;;3.65;;
78622;SDS011;67943;54.412;9.502;2024-01-07T17:38:55;10.95;;;4.03;;
78622;SDS011;67943;54.412;9.502;2024-01-07T17:43:57;9.25;;;4.82;;
78622;SDS011;67943;54.412;9.502;2024-01-07T17:49:01;6.63;;;3.00;;
78622;SDS011;67943;54.412;9.502;2024-01-07T17:54:03;8.05;;;3.20;;
78622;SDS011;67943;54.412;9.502;2024-01-07T17:59:04;9.25;;;4.60;;
78622;SDS011;67943;54.412;9.502;2024-01-07T18:04:09;5.70;;;2.90;;
78622;SDS011;67943;54.412;9.502;2024-01-07T18:09:16;18.98;;;7.18;;
78622;SDS011;67943;54.412;9.502;2024-01-07T18:14:17;7.80;;;4.10;;
78622;SDS011;67943;54.412;9.502;2024-01-07T18:19:22;10.07;;;4.15;;
78622;SDS011;67943;54.412;9.502;2024-01-07T18:24:24;6.35;;;3.53;;
78622;SDS011;67943;54.412;9.502;2024-01-07T18:29:25;8.10;;;3.78;;
78622;SDS011;67943;54.412;9.502;2024-01-07T18:34:28;9.73;;;4.32;;
78622;SDS011;67943;54.412;9.502;2024-01-07T18:39:29;10.75;;;5.20;;
78622;SDS011;67943;54.412;9.502;2024-01-07T18:44:31;11.32;;;5.25;;
78622;SDS011;67943;54.412;9.502;2024-01-07T18:49:38;14.70;;;6.88;;
78622;SDS011;67943;54.412;9.502;2024-01-07T18:54:39;5.72;;;3.28;;
78622;SDS011;67943;54.412;9.502;2024-01-07T18:59:42;8.18;;;4.25;;
78622;SDS011;67943;54.412;9.502;2024-01-07T19:04:45;7.20;;;3.78;;
78622;SDS011;67943;54.412;9.502;2024-01-07T19:09:46;7.30;;;3.13;;
78622;SDS011;67943;54.412;9.502;2024-01-07T19:14:48;7.13;;;3.40;;
78622;SDS011;67943;54.412;9.502;2024-01-07T19:19:51;6.07;;;3.75;;
78622;SDS011;67943;54.412;9.502;2024-01-07T19:24:52;7.93;;;3.80;;
78622;SDS011;67943;54.412;9.502;2024-01-07T19:29:54;5.57;;;3.55;;
78622;SDS011;67943;54.412;9.502;2024-01-07T19:34:57;6.90;;;3.42;;
78622;SDS011;67943;54.412;9.502;2024-01-07T19:39:59;6.07;;;2.90;;
78622;SDS011;67943;54.412;9.502;2024-01-07T19:45:01;7.13;;;3.50;;
78622;SDS011;67943;54.412;9.502;2024-01-07T19:50:04;6.32;;;3.70;;
78622;SDS011;67943;54.412;9.502;2024-01-07T19:55:06;7.28;;;3.80;;
78622;SDS011;67943;54.412;9.502;2024-01-07T20:00:09;7.35;;;4.05;;
78622;SDS011;67943;54.412;9.502;2024-01-07T20:05:14;12.20;;;5.45;;
78622;SDS011;67943;54.412;9.502;2024-01-07T20:10:16;10.18;;;5.13;;
78622;SDS011;67943;54.412;9.502;2024-01-07T20:15:17;9.07;;;4.30;;
78622;SDS011;67943;54.412;9.502;2024-01-07T20:20:20;9.45;;;4.60;;
78622;SDS011;67943;54.412;9.502;2024-01-07T20:25:22;9.38;;;4.70;;
78622;SDS011;67943;54.412;9.502;2024-01-07T20:30:23;9.63;;;4.70;;
78622;SDS011;67943;54.412;9.502;2024-01-07T20:35:26;7.25;;;4.40;;
78622;SDS011;67943;54.412;9.502;2024-01-07T20:40:30;11.25;;;4.78;;
78622;SDS011;67943;54.412;9.502;2024-01-07T20:45:31;13.02;;;4.88;;
78622;SDS011;67943;54.412;9.502;2024-01-07T20:50:37;11.60;;;4.78;;
78622;SDS011;67943;54.412;9.502;2024-01-07T20:55:38;11.57;;;5.20;;
78622;SDS011;67943;54.412;9.502;2024-01-07T21:00:40;11.55;;;5.05;;
78622;SDS011;67943;54.412;9.502;2024-01-07T21:05:43;9.32;;;5.10;;
78622;SDS011;67943;54.412;9.502;2024-01-07T21:10:45;10.18;;;5.22;;
78622;SDS011;67943;54.412;9.502;2024-01-07T21:15:47;9.77;;;4.40;;
78622;SDS011;67943;54.412;9.502;2024-01-07T21:20:50;10.73;;;5.05;;
78622;SDS011;67943;54.412;9.502;2024-01-07T21:25:51;9.75;;;4.68;;
78622;SDS011;67943;54.412;9.502;2024-01-07T21:30:53;10.02;;;4.38;;
78622;SDS011;67943;54.412;9.502;2024-01-07T21:35:55;9.35;;;4.00;;
78622;SDS011;67943;54.412;9.502;2024-01-07T21:40:58;8.15;;;3.88;;
78622;SDS011;67943;54.412;9.502;2024-01-07T21:46:03;9.43;;;4.57;;
78622;SDS011;67943;54.412;9.502;2024-01-07T21:51:08;11.52;;;3.95;;
78622;SDS011;67943;54.412;9.502;2024-01-07T21:56:10;11.43;;;4.82;;
78622;SDS011;67943;54.412;9.502;2024-01-07T22:01:11;6.43;;;3.47;;
78622;SDS011;67943;54.412;9.502;2024-01-07T22:06:14;8.30;;;4.18;;
78622;SDS011;67943;54.412;9.502;2024-01-07T22:11:15;8.85;;;4.32;;
78622;SDS011;67943;54.412;9.502;2024-01-07T22:16:18;8.38;;;3.55;;
78622;SDS011;67943;54.412;9.502;2024-01-07T22:21:21;10.07;;;3.92;;
78622;SDS011;67943;54.412;9.502;2024-01-07T22:26:23;7.43;;;4.20;;
78622;SDS011;67943;54.412;9.502;2024-01-07T22:31:25;9.73;;;4.05;;
78622;SDS011;67943;54.412;9.502;2024-01-07T22:36:27;8.23;;;3.88;;
78622;SDS011;67943;54.412;9.502;2024-01-07T22:41:29;8.45;;;4.45;;
78622;SDS011;67943;54.412;9.502;2024-01-07T22:46:30;8.75;;;4.22;;
78622;SDS011;67943;54.412;9.502;2024-01-07T22:51:33;8.20;;;3.70;;
78622;SDS011;67943;54.412;9.502;2024-01-07T22:56:38;6.95;;;3.85;;
78622;SDS011;67943;54.412;9.502;2024-01-07T23:01:40;10.82;;;4.20;;
78622;SDS011;67943;54.412;9.502;2024-01-07T23:06:44;9.73;;;3.75;;
78622;SDS011;67943;54.412;9.502;2024-01-07T23:11:45;6.85;;;3.40;;
78622;SDS011;67943;54.412;9.502;2024-01-07T23:16:47;7.80;;;3.25;;
78622;SDS011;67943;54.412;9.502;2024-01-07T23:21:49;8.82;;;3.92;;
78622;SDS011;67943;54.412;9.502;2024-01-07T23:26:51;7.75;;;3.67;;
78622;SDS011;67943;54.412;9.502;2024-01-07T23:31:53;5.72;;;3.08;;
78622;SDS011;67943;54.412;9.502;2024-01-07T23:36:55;8.13;;;3.78;;
78622;SDS011;67943;54.412;9.502;2024-01-07T23:41:57;8.63;;;3.85;;
78622;SDS011;67943;54.412;9.502;2024-01-07T23:46:58;6.07;;;3.38;;
78622;SDS011;67943;54.412;9.502;2024-01-07T23:52:01;7.60;;;3.78;;
78622;SDS011;67943;54.412;9.502;2024-01-07T23:57:03;6.13;;;3.70;;
